createdAt,value
2022-10-06T00:04:10.783Z,87.95
2022-10-06T00:09:29.055Z,87.04
2022-10-06T00:14:21.978Z,86.63
2022-10-06T00:19:21.957Z,86.53
2022-10-06T00:24:21.826Z,86.73
2022-10-06T00:29:21.765Z,86.63
2022-10-06T00:34:21.678Z,86.02
2022-10-06T00:39:21.630Z,85.52
2022-10-06T00:44:21.559Z,87.08
2022-10-06T00:49:21.554Z,87.28
2022-10-06T00:54:21.961Z,89.41
2022-10-06T00:59:21.361Z,89.55
2022-10-06T01:04:21.288Z,92.80
2022-10-06T01:09:21.238Z,91.08
2022-10-06T01:14:21.156Z,94.53
2022-10-06T01:19:21.071Z,93.96
2022-10-06T01:24:21.226Z,95.48
2022-10-06T01:29:20.947Z,95.07
2022-10-06T01:34:20.942Z,94.00
2022-10-06T01:39:20.841Z,94.82
2022-10-06T01:44:20.750Z,94.82
2022-10-06T01:49:20.677Z,95.12
2022-10-06T01:54:20.614Z,95.94
2022-10-06T01:59:20.523Z,94.61
2022-10-06T02:04:20.538Z,95.12
2022-10-06T02:09:20.473Z,96.23
2022-10-06T02:14:20.367Z,95.87
2022-10-06T02:19:20.274Z,96.59
2022-10-06T02:24:20.218Z,96.79
2022-10-06T02:29:20.195Z,96.79
2022-10-06T02:34:20.070Z,96.12
2022-10-06T02:39:20.006Z,90.23
2022-10-06T02:44:19.933Z,85.25
2022-10-06T02:49:19.874Z,88.10
2022-10-06T02:54:19.846Z,91.10
2022-10-06T02:59:19.736Z,85.86
2022-10-06T03:04:19.666Z,84.54
2022-10-06T03:09:19.576Z,84.03
2022-10-06T03:14:22.030Z,84.23
2022-10-06T03:19:19.471Z,84.23
2022-10-06T03:24:19.390Z,86.21
2022-10-06T03:29:19.349Z,87.37
2022-10-06T03:34:19.266Z,89.91
2022-10-06T03:39:19.205Z,90.46
2022-10-06T03:44:19.113Z,90.40
2022-10-06T03:49:19.075Z,91.26
2022-10-06T03:54:18.957Z,92.32
2022-10-06T03:59:19.128Z,91.14
2022-10-06T04:04:18.849Z,90.53
2022-10-06T04:09:18.877Z,88.84
2022-10-06T04:14:18.690Z,87.71
2022-10-06T04:19:33.673Z,89.71
2022-10-06T04:24:26.588Z,88.02
2022-10-06T04:29:26.503Z,90.36
2022-10-06T04:34:26.434Z,90.92
2022-10-06T04:39:26.389Z,91.47
2022-10-06T04:44:26.314Z,91.92
2022-10-06T04:49:26.231Z,93.35
2022-10-06T04:54:30.028Z,93.19
2022-10-06T04:59:27.117Z,94.01
2022-10-06T05:04:26.130Z,94.56
2022-10-06T05:09:25.983Z,94.67
2022-10-06T05:14:26.202Z,95.07
2022-10-06T05:19:25.846Z,95.22
2022-10-06T05:24:25.742Z,95.02
2022-10-06T05:29:25.705Z,95.63
2022-10-06T05:34:25.637Z,95.53
2022-10-06T05:39:25.577Z,95.22
2022-10-06T05:44:25.524Z,95.02
2022-10-06T05:49:25.406Z,94.92
2022-10-06T05:54:25.357Z,95.26
2022-10-06T05:59:25.289Z,95.17
2022-10-06T06:04:25.837Z,95.57
2022-10-06T06:09:25.137Z,94.85
2022-10-06T06:14:25.058Z,95.67
2022-10-06T06:19:29.067Z,95.67
2022-10-06T06:24:24.954Z,95.63
2022-10-06T06:29:24.897Z,94.60
2022-10-06T06:34:24.821Z,95.07
2022-10-06T06:39:24.758Z,94.87
2022-10-06T06:44:24.655Z,93.86
2022-10-06T06:49:24.636Z,92.90
2022-10-06T06:54:24.554Z,88.81
2022-10-06T06:59:24.464Z,80.22
2022-10-06T07:04:24.398Z,72.11
2022-10-06T07:09:24.351Z,67.10
2022-10-06T07:14:24.268Z,63.93
2022-10-06T07:19:25.096Z,60.29
2022-10-06T07:24:24.130Z,58.84
2022-10-06T07:29:24.078Z,59.78
2022-10-06T07:34:24.487Z,63.51
2022-10-06T07:39:23.922Z,64.05
2022-10-06T07:44:23.872Z,64.48
2022-10-06T07:49:23.800Z,65.12
2022-10-06T07:54:27.243Z,65.19
2022-10-06T07:59:23.672Z,64.18
2022-10-06T08:04:23.599Z,65.73
2022-10-06T08:09:23.579Z,64.15
2022-10-06T08:14:23.430Z,63.33
2022-10-06T08:19:23.388Z,66.30
2022-10-06T08:24:23.343Z,59.72
2022-10-06T08:29:23.271Z,61.00
2022-10-06T08:34:23.220Z,57.06
2022-10-06T08:39:23.139Z,58.34
2022-10-06T08:44:23.062Z,57.17
2022-10-06T08:49:23.006Z,52.87
2022-10-06T08:54:22.941Z,50.07
2022-10-06T08:59:22.844Z,49.82
2022-10-06T09:04:22.795Z,48.93
2022-10-06T09:09:22.718Z,46.22
2022-10-06T09:14:22.665Z,50.47
2022-10-06T09:19:24.596Z,45.28
2022-10-06T09:24:22.573Z,48.14
2022-10-06T09:29:22.454Z,47.03
2022-10-06T09:34:22.399Z,44.79
2022-10-06T09:39:22.332Z,42.99
2022-10-06T09:44:22.249Z,42.07
2022-10-06T09:49:22.198Z,42.65
2022-10-06T09:54:22.122Z,41.08
2022-10-06T09:59:22.081Z,41.10
2022-10-06T10:04:22.114Z,40.55
2022-10-06T10:09:22.691Z,36.93
2022-10-06T10:14:21.892Z,39.03
2022-10-06T10:19:21.841Z,39.14
2022-10-06T10:24:21.732Z,38.73
2022-10-06T10:29:21.676Z,36.63
2022-10-06T10:34:24.211Z,37.05
2022-10-06T10:39:21.540Z,36.73
2022-10-06T10:44:21.466Z,39.11
2022-10-06T10:49:21.385Z,38.84
2022-10-06T10:54:21.387Z,37.03
2022-10-06T10:59:21.291Z,36.19
2022-10-06T11:04:21.225Z,35.46
2022-10-06T11:09:21.162Z,36.62
2022-10-06T11:14:21.071Z,36.51
2022-10-06T11:19:21.018Z,35.46
2022-10-06T11:24:20.949Z,37.71
2022-10-06T11:29:20.862Z,37.81
2022-10-06T11:34:20.815Z,37.48
2022-10-06T11:39:20.748Z,36.31
2022-10-06T11:44:20.687Z,35.30
2022-10-06T11:49:20.610Z,36.56
2022-10-06T11:54:20.513Z,35.69
2022-10-06T11:59:22.227Z,37.75
2022-10-06T12:04:24.280Z,38.32
2022-10-06T12:09:20.324Z,36.98
2022-10-06T12:16:00.123Z,37.82
2022-10-06T12:19:21.205Z,39.81
2022-10-06T12:24:20.130Z,38.71
2022-10-06T12:29:20.067Z,40.10
2022-10-06T12:34:20.007Z,43.48
2022-10-06T12:39:19.940Z,45.50
2022-10-06T12:44:19.891Z,48.43
2022-10-06T12:49:19.803Z,48.46
2022-10-06T12:54:19.778Z,47.88
2022-10-06T12:59:19.658Z,48.88
2022-10-06T13:04:19.599Z,50.41
2022-10-06T13:09:19.531Z,50.01
2022-10-06T13:14:19.457Z,49.83
2022-10-06T13:19:19.404Z,50.33
2022-10-06T13:24:20.905Z,50.13
2022-10-06T13:29:19.263Z,51.21
2022-10-06T13:34:19.180Z,49.51
2022-10-06T13:39:19.131Z,48.38
2022-10-06T13:44:19.051Z,51.56
2022-10-06T13:49:18.992Z,49.08
2022-10-06T13:54:19.007Z,49.30
2022-10-06T13:59:18.852Z,50.61
2022-10-06T14:04:18.799Z,47.39
2022-10-06T14:09:18.715Z,50.11
2022-10-06T14:14:18.652Z,49.30
2022-10-06T14:19:18.644Z,49.51
2022-10-06T14:24:18.504Z,49.22
2022-10-06T14:29:18.440Z,50.53
2022-10-06T14:34:18.393Z,53.95
2022-10-06T14:39:18.321Z,49.65
2022-10-06T14:44:18.231Z,51.09
2022-10-06T14:49:18.171Z,51.29
2022-10-06T14:54:18.142Z,52.62
2022-10-06T14:59:18.091Z,49.90
2022-10-06T15:04:17.943Z,55.23
2022-10-06T15:09:17.913Z,59.59
2022-10-06T15:14:17.836Z,56.37
2022-10-06T15:19:17.768Z,58.58
2022-10-06T15:24:17.702Z,55.19
2022-10-06T15:29:17.630Z,53.90
2022-10-06T15:34:17.561Z,56.35
2022-10-06T15:39:17.501Z,54.83
2022-10-06T15:44:17.420Z,56.35
2022-10-06T15:49:17.387Z,57.08
2022-10-06T15:54:17.286Z,53.98
2022-10-06T15:59:17.230Z,54.48
2022-10-06T16:04:18.280Z,60.24
2022-10-06T16:09:17.070Z,61.98
2022-10-06T16:14:17.019Z,65.14
2022-10-06T16:19:16.959Z,66.78
2022-10-06T16:24:16.892Z,68.43
2022-10-06T16:29:16.814Z,71.70
2022-10-06T16:34:16.754Z,73.29
2022-10-06T16:39:16.683Z,73.59
2022-10-06T16:44:16.619Z,72.11
2022-10-06T16:49:16.557Z,74.13
2022-10-06T16:54:16.499Z,75.08
2022-10-06T16:59:16.411Z,74.61
2022-10-06T17:04:16.397Z,76.00
2022-10-06T17:09:16.276Z,76.40
2022-10-06T17:14:17.153Z,76.34
2022-10-06T17:19:16.147Z,78.51
2022-10-06T17:24:16.072Z,79.36
2022-10-06T17:29:15.989Z,81.46
2022-10-06T17:34:19.787Z,80.24
2022-10-06T17:39:16.878Z,80.24
2022-10-06T17:44:15.815Z,79.74
2022-10-06T17:49:15.750Z,79.23
2022-10-06T17:54:15.672Z,80.59
2022-10-06T17:59:15.604Z,81.85
2022-10-06T18:04:15.651Z,82.09
2022-10-06T18:09:15.522Z,80.66
2022-10-06T18:14:15.418Z,80.56
2022-10-06T18:19:15.354Z,80.56
2022-10-06T18:24:15.283Z,81.07
2022-10-06T18:29:15.178Z,81.17
2022-10-06T18:36:10.447Z,80.36
2022-10-06T18:39:16.069Z,81.79
2022-10-06T18:44:15.090Z,81.72
2022-10-06T18:49:14.930Z,83.49
2022-10-06T18:54:14.850Z,83.80
2022-10-06T18:59:14.809Z,84.86
2022-10-06T19:04:14.727Z,86.02
2022-10-06T19:09:14.684Z,84.69
2022-10-06T19:14:14.563Z,85.75
2022-10-06T19:19:14.529Z,85.24
2022-10-06T19:24:14.472Z,85.96
2022-10-06T19:29:14.394Z,86.41
2022-10-06T19:34:14.652Z,86.61
2022-10-06T19:39:14.271Z,87.98
2022-10-06T19:44:14.190Z,87.37
2022-10-06T19:49:14.124Z,87.92
2022-10-06T19:54:14.069Z,87.30
2022-10-06T19:59:13.983Z,87.61
2022-10-06T20:04:13.980Z,87.92
2022-10-06T20:09:13.864Z,87.10
2022-10-06T20:14:18.262Z,87.30
2022-10-06T20:19:14.752Z,86.90
2022-10-06T20:24:13.666Z,87.00
2022-10-06T20:29:14.359Z,87.45
2022-10-06T20:34:13.526Z,88.37
2022-10-06T20:39:13.460Z,88.41
2022-10-06T20:44:13.406Z,88.92
2022-10-06T20:49:13.322Z,89.33
2022-10-06T20:54:13.250Z,89.58
2022-10-06T20:59:13.169Z,89.58
2022-10-06T21:04:13.080Z,90.13
2022-10-06T21:09:13.017Z,90.75
2022-10-06T21:14:12.941Z,90.64
2022-10-06T21:19:12.901Z,90.75
2022-10-06T21:24:12.848Z,90.23
2022-10-06T21:29:12.768Z,90.69
2022-10-06T21:34:12.678Z,90.58
2022-10-06T21:39:12.615Z,90.99
2022-10-06T21:44:12.611Z,91.61
2022-10-06T21:49:12.486Z,90.28
2022-10-06T21:54:12.428Z,91.30
2022-10-06T21:59:12.358Z,91.03
2022-10-06T22:04:12.300Z,91.69
2022-10-06T22:09:12.235Z,91.80
2022-10-06T22:14:12.162Z,91.49
2022-10-06T22:19:12.102Z,91.69
2022-10-06T22:24:12.052Z,91.59
2022-10-06T22:29:11.958Z,92.76
2022-10-06T22:34:11.892Z,92.25
2022-10-06T22:39:11.823Z,91.99
2022-10-06T22:44:11.748Z,92.40
2022-10-06T22:49:11.713Z,92.70
2022-10-06T22:54:11.638Z,93.01
2022-10-06T22:59:11.574Z,92.74
2022-10-06T23:04:11.488Z,92.29
2022-10-06T23:09:11.416Z,91.72
2022-10-06T23:14:11.352Z,92.33
2022-10-06T23:19:11.291Z,93.30
2022-10-06T23:24:11.235Z,93.26
2022-10-06T23:29:11.144Z,92.54
2022-10-06T23:34:11.078Z,93.46
2022-10-06T23:39:11.010Z,93.51
2022-10-06T23:44:10.946Z,93.82
2022-10-06T23:49:10.883Z,93.86
2022-10-06T23:54:10.813Z,93.55
2022-10-06T23:59:10.740Z,94.02
